sensor_id;sensor_type;location;lat;lon;timestamp;P1;durP1;ratioP1;P2;durP2;ratioP2
32106;SDS011;18622;51.998;10.440;2023-04-24T02:50:33;0.37;;;0.37;;
32106;SDS011;18622;51.998;10.440;2023-04-24T02:53:01;0.70;;;0.50;;
32106;SDS011;18622;51.998;10.440;2023-04-24T02:55:29;2.67;;;0.50;;
32106;SDS011;18622;51.998;10.440;2023-04-24T02:57:57;1.90;;;0.60;;
32106;SDS011;18622;51.998;10.440;2023-04-24T03:00:25;3.93;;;0.50;;
32106;SDS011;18622;51.998;10.440;2023-04-24T03:02:53;0.90;;;0.60;;
32106;SDS011;18622;51.998;10.440;2023-04-24T03:05:20;0.77;;;0.53;;
32106;SDS011;18622;51.998;10.440;2023-04-24T03:07:48;0.33;;;0.30;;
32106;SDS011;18622;51.998;10.440;2023-04-24T03:10:18;2.12;;;0.47;;
32106;SDS011;18622;51.998;10.440;2023-04-24T03:12:46;2.40;;;0.70;;
32106;SDS011;18622;51.998;10.440;2023-04-24T03:15:14;3.33;;;0.80;;
32106;SDS011;18622;51.998;10.440;2023-04-24T03:17:41;0.90;;;0.40;;
32106;SDS011;18622;51.998;10.440;2023-04-24T03:20:09;1.03;;;0.50;;
32106;SDS011;18622;51.998;10.440;2023-04-24T03:22:37;1.53;;;0.63;;
32106;SDS011;18622;51.998;10.440;2023-04-24T03:25:05;1.57;;;0.60;;
32106;SDS011;18622;51.998;10.440;2023-04-24T03:27:35;2.65;;;0.70;;
32106;SDS011;18622;51.998;10.440;2023-04-24T03:30:03;0.50;;;0.50;;
32106;SDS011;18622;51.998;10.440;2023-04-24T03:32:32;0.47;;;0.47;;
32106;SDS011;18622;51.998;10.440;2023-04-24T03:35:00;1.10;;;0.40;;
32106;SDS011;18622;51.998;10.440;2023-04-24T03:37:28;0.60;;;0.40;;
32106;SDS011;18622;51.998;10.440;2023-04-24T03:39:56;2.67;;;0.60;;
32106;SDS011;18622;51.998;10.440;2023-04-24T03:42:24;2.20;;;0.57;;
32106;SDS011;18622;51.998;10.440;2023-04-24T03:44:52;1.07;;;0.40;;
32106;SDS011;18622;51.998;10.440;2023-04-24T03:47:20;1.27;;;0.50;;
32106;SDS011;18622;51.998;10.440;2023-04-24T03:49:48;1.77;;;0.63;;
32106;SDS011;18622;51.998;10.440;2023-04-24T03:52:16;2.50;;;0.60;;
32106;SDS011;18622;51.998;10.440;2023-04-24T03:54:43;1.80;;;0.43;;
32106;SDS011;18622;51.998;10.440;2023-04-24T03:57:11;0.63;;;0.40;;
32106;SDS011;18622;51.998;10.440;2023-04-24T03:59:39;0.93;;;0.40;;
32106;SDS011;18622;51.998;10.440;2023-04-24T04:02:07;2.10;;;0.60;;
32106;SDS011;18622;51.998;10.440;2023-04-24T04:04:35;0.80;;;0.60;;
32106;SDS011;18622;51.998;10.440;2023-04-24T04:07:02;1.90;;;0.50;;
32106;SDS011;18622;51.998;10.440;2023-04-24T04:09:31;2.47;;;1.22;;
32106;SDS011;18622;51.998;10.440;2023-04-24T04:11:59;2.00;;;0.70;;
32106;SDS011;18622;51.998;10.440;2023-04-24T04:14:27;1.77;;;0.87;;
32106;SDS011;18622;51.998;10.440;2023-04-24T04:16:55;2.00;;;0.63;;
32106;SDS011;18622;51.998;10.440;2023-04-24T04:19:22;0.60;;;0.40;;
32106;SDS011;18622;51.998;10.440;2023-04-24T04:21:50;4.37;;;0.80;;
32106;SDS011;18622;51.998;10.440;2023-04-24T04:24:19;2.17;;;0.50;;
32106;SDS011;18622;51.998;10.440;2023-04-24T04:26:48;0.85;;;0.55;;
32106;SDS011;18622;51.998;10.440;2023-04-24T04:29:17;2.22;;;0.30;;
32106;SDS011;18622;51.998;10.440;2023-04-24T04:31:45;0.98;;;0.70;;
32106;SDS011;18622;51.998;10.440;2023-04-24T04:34:12;1.93;;;0.67;;
32106;SDS011;18622;51.998;10.440;2023-04-24T04:36:41;0.83;;;0.50;;
32106;SDS011;18622;51.998;10.440;2023-04-24T04:39:10;1.10;;;0.47;;
32106;SDS011;18622;51.998;10.440;2023-04-24T04:41:39;0.55;;;0.50;;
32106;SDS011;18622;51.998;10.440;2023-04-24T04:44:07;1.03;;;0.50;;
32106;SDS011;18622;51.998;10.440;2023-04-24T04:46:35;0.43;;;0.40;;
32106;SDS011;18622;51.998;10.440;2023-04-24T04:49:04;1.52;;;0.60;;
32106;SDS011;18622;51.998;10.440;2023-04-24T04:51:32;1.40;;;0.67;;
32106;SDS011;18622;51.998;10.440;2023-04-24T04:54:00;1.47;;;0.60;;
32106;SDS011;18622;51.998;10.440;2023-04-24T04:56:28;1.13;;;0.60;;
32106;SDS011;18622;51.998;10.440;2023-04-24T04:58:55;3.33;;;0.80;;
32106;SDS011;18622;51.998;10.440;2023-04-24T05:01:24;3.17;;;0.93;;
32106;SDS011;18622;51.998;10.440;2023-04-24T05:03:53;0.60;;;0.60;;
32106;SDS011;18622;51.998;10.440;2023-04-24T05:06:21;1.00;;;0.60;;
32106;SDS011;18622;51.998;10.440;2023-04-24T05:08:49;3.07;;;0.77;;
32106;SDS011;18622;51.998;10.440;2023-04-24T05:11:17;3.57;;;0.80;;
32106;SDS011;18622;51.998;10.440;2023-04-24T05:13:45;1.63;;;0.77;;
32106;SDS011;18622;51.998;10.440;2023-04-24T05:16:12;3.80;;;1.00;;
32106;SDS011;18622;51.998;10.440;2023-04-24T05:18:40;1.73;;;1.00;;
32106;SDS011;18622;51.998;10.440;2023-04-24T05:21:08;2.33;;;0.73;;
32106;SDS011;18622;51.998;10.440;2023-04-24T05:23:36;2.53;;;0.70;;
32106;SDS011;18622;51.998;10.440;2023-04-24T05:26:04;6.57;;;1.00;;
32106;SDS011;18622;51.998;10.440;2023-04-24T05:28:32;1.63;;;0.60;;
32106;SDS011;18622;51.998;10.440;2023-04-24T14:49:35;0.20;;;0.20;;
32106;SDS011;18622;51.998;10.440;2023-04-24T14:52:03;0.30;;;0.30;;
32106;SDS011;18622;51.998;10.440;2023-04-24T14:54:31;0.60;;;0.37;;
32106;SDS011;18622;51.998;10.440;2023-04-24T14:56:58;0.37;;;0.37;;
32106;SDS011;18622;51.998;10.440;2023-04-24T14:59:30;0.30;;;0.30;;
32106;SDS011;18622;51.998;10.440;2023-04-24T15:01:58;0.72;;;0.40;;
32106;SDS011;18622;51.998;10.440;2023-04-24T15:04:25;0.57;;;0.30;;
32106;SDS011;18622;51.998;10.440;2023-04-24T15:06:54;0.40;;;0.40;;
32106;SDS011;18622;51.998;10.440;2023-04-24T15:09:23;1.07;;;0.50;;
32106;SDS011;18622;51.998;10.440;2023-04-24T15:11:52;0.80;;;0.60;;
32106;SDS011;18622;51.998;10.440;2023-04-24T15:14:20;0.50;;;0.40;;
32106;SDS011;18622;51.998;10.440;2023-04-24T15:16:48;0.50;;;0.50;;
32106;SDS011;18622;51.998;10.440;2023-04-24T15:19:16;0.90;;;0.63;;
32106;SDS011;18622;51.998;10.440;2023-04-24T15:21:43;0.70;;;0.57;;
32106;SDS011;18622;51.998;10.440;2023-04-24T15:24:11;0.40;;;0.40;;
32106;SDS011;18622;51.998;10.440;2023-04-24T15:26:39;0.63;;;0.40;;
32106;SDS011;18622;51.998;10.440;2023-04-24T15:29:07;0.77;;;0.40;;
32106;SDS011;18622;51.998;10.440;2023-04-24T15:31:35;1.43;;;1.13;;
32106;SDS011;18622;51.998;10.440;2023-04-24T15:34:04;0.65;;;0.60;;
32106;SDS011;18622;51.998;10.440;2023-04-24T15:36:32;0.72;;;0.60;;
32106;SDS011;18622;51.998;10.440;2023-04-24T15:39:01;2.10;;;0.63;;
32106;SDS011;18622;51.998;10.440;2023-04-24T15:41:29;0.42;;;0.42;;
32106;SDS011;18622;51.998;10.440;2023-04-24T15:43:57;0.62;;;0.62;;
32106;SDS011;18622;51.998;10.440;2023-04-24T15:46:25;0.87;;;0.87;;
32106;SDS011;18622;51.998;10.440;2023-04-24T15:48:53;1.10;;;0.93;;
32106;SDS011;18622;51.998;10.440;2023-04-24T15:51:21;1.27;;;0.53;;
32106;SDS011;18622;51.998;10.440;2023-04-24T15:53:48;1.77;;;1.20;;
32106;SDS011;18622;51.998;10.440;2023-04-24T15:56:16;0.70;;;0.70;;
32106;SDS011;18622;51.998;10.440;2023-04-24T15:58:45;0.98;;;0.80;;
32106;SDS011;18622;51.998;10.440;2023-04-24T16:01:13;1.23;;;1.03;;
32106;SDS011;18622;51.998;10.440;2023-04-24T16:03:41;3.60;;;2.33;;
32106;SDS011;18622;51.998;10.440;2023-04-24T16:06:09;2.57;;;1.70;;
32106;SDS011;18622;51.998;10.440;2023-04-24T16:08:37;2.47;;;1.83;;
32106;SDS011;18622;51.998;10.440;2023-04-24T16:11:04;5.33;;;2.33;;
32106;SDS011;18622;51.998;10.440;2023-04-24T16:13:32;4.00;;;2.33;;
32106;SDS011;18622;51.998;10.440;2023-04-24T16:16:00;4.67;;;2.53;;
32106;SDS011;18622;51.998;10.440;2023-04-24T16:18:28;4.57;;;2.13;;
32106;SDS011;18622;51.998;10.440;2023-04-24T16:20:56;5.53;;;2.60;;
32106;SDS011;18622;51.998;10.440;2023-04-24T16:23:24;4.37;;;3.00;;
32106;SDS011;18622;51.998;10.440;2023-04-24T16:25:52;8.77;;;3.00;;
32106;SDS011;18622;51.998;10.440;2023-04-24T16:28:19;7.23;;;3.20;;
32106;SDS011;18622;51.998;10.440;2023-04-24T16:30:47;7.75;;;3.20;;
32106;SDS011;18622;51.998;10.440;2023-04-24T16:33:15;8.63;;;3.33;;
32106;SDS011;18622;51.998;10.440;2023-04-24T16:35:43;7.33;;;4.03;;
32106;SDS011;18622;51.998;10.440;2023-04-24T16:38:11;8.30;;;3.80;;
32106;SDS011;18622;51.998;10.440;2023-04-24T16:40:39;10.23;;;4.03;;
32106;SDS011;18622;51.998;10.440;2023-04-24T16:43:07;7.63;;;4.30;;
32106;SDS011;18622;51.998;10.440;2023-04-24T16:45:35;7.53;;;4.17;;
32106;SDS011;18622;51.998;10.440;2023-04-24T16:48:03;7.83;;;4.20;;
32106;SDS011;18622;51.998;10.440;2023-04-24T16:50:31;7.00;;;4.73;;
32106;SDS011;18622;51.998;10.440;2023-04-24T16:52:59;11.60;;;4.43;;
32106;SDS011;18622;51.998;10.440;2023-04-24T16:55:26;8.00;;;4.03;;
32106;SDS011;18622;51.998;10.440;2023-04-24T16:57:54;10.30;;;4.80;;
32106;SDS011;18622;51.998;10.440;2023-04-24T17:00:22;8.67;;;4.70;;
32106;SDS011;18622;51.998;10.440;2023-04-24T17:02:50;9.63;;;5.00;;
32106;SDS011;18622;51.998;10.440;2023-04-24T17:05:18;16.77;;;6.07;;
32106;SDS011;18622;51.998;10.440;2023-04-24T17:07:50;14.47;;;5.62;;
32106;SDS011;18622;51.998;10.440;2023-04-24T17:10:17;12.90;;;5.33;;
32106;SDS011;18622;51.998;10.440;2023-04-24T17:12:45;8.23;;;5.10;;
32106;SDS011;18622;51.998;10.440;2023-04-24T17:15:13;11.23;;;6.43;;
32106;SDS011;18622;51.998;10.440;2023-04-24T17:17:41;14.37;;;6.07;;
32106;SDS011;18622;51.998;10.440;2023-04-24T17:20:11;14.60;;;5.80;;
32106;SDS011;18622;51.998;10.440;2023-04-24T17:22:39;11.80;;;6.22;;
32106;SDS011;18622;51.998;10.440;2023-04-24T17:25:07;14.07;;;6.57;;
32106;SDS011;18622;51.998;10.440;2023-04-24T17:27:35;14.87;;;6.63;;
32106;SDS011;18622;51.998;10.440;2023-04-24T17:30:03;8.53;;;5.77;;
32106;SDS011;18622;51.998;10.440;2023-04-24T17:32:31;8.58;;;5.00;;
32106;SDS011;18622;51.998;10.440;2023-04-24T17:34:59;9.83;;;4.70;;
32106;SDS011;18622;51.998;10.440;2023-04-24T17:37:27;6.67;;;3.90;;
32106;SDS011;18622;51.998;10.440;2023-04-24T17:39:55;9.03;;;3.67;;
32106;SDS011;18622;51.998;10.440;2023-04-24T17:42:22;5.60;;;2.70;;
32106;SDS011;18622;51.998;10.440;2023-04-24T17:44:50;6.33;;;3.40;;
32106;SDS011;18622;51.998;10.440;2023-04-24T17:47:18;7.83;;;3.57;;
32106;SDS011;18622;51.998;10.440;2023-04-24T17:49:47;5.92;;;2.72;;
32106;SDS011;18622;51.998;10.440;2023-04-24T17:52:14;7.53;;;3.50;;
32106;SDS011;18622;51.998;10.440;2023-04-24T17:54:42;9.17;;;3.40;;
32106;SDS011;18622;51.998;10.440;2023-04-24T17:57:10;10.10;;;3.20;;
32106;SDS011;18622;51.998;10.440;2023-04-24T17:59:38;7.07;;;3.20;;
32106;SDS011;18622;51.998;10.440;2023-04-24T18:02:06;3.33;;;2.50;;
32106;SDS011;18622;51.998;10.440;2023-04-24T18:04:34;4.40;;;2.53;;
32106;SDS011;18622;51.998;10.440;2023-04-24T18:07:04;6.03;;;2.50;;
32106;SDS011;18622;51.998;10.440;2023-04-24T18:09:31;5.20;;;2.67;;
32106;SDS011;18622;51.998;10.440;2023-04-24T18:11:59;6.13;;;2.60;;
32106;SDS011;18622;51.998;10.440;2023-04-24T18:14:27;11.00;;;3.23;;
32106;SDS011;18622;51.998;10.440;2023-04-24T18:16:55;10.20;;;3.67;;
32106;SDS011;18622;51.998;10.440;2023-04-24T18:19:23;5.87;;;3.37;;
32106;SDS011;18622;51.998;10.440;2023-04-24T18:21:51;9.10;;;3.13;;
32106;SDS011;18622;51.998;10.440;2023-04-24T18:24:19;6.00;;;2.73;;
32106;SDS011;18622;51.998;10.440;2023-04-24T18:26:47;5.00;;;2.60;;
32106;SDS011;18622;51.998;10.440;2023-04-24T18:29:15;4.53;;;2.60;;
32106;SDS011;18622;51.998;10.440;2023-04-24T18:31:43;6.23;;;2.33;;
32106;SDS011;18622;51.998;10.440;2023-04-24T18:34:10;7.13;;;3.73;;
32106;SDS011;18622;51.998;10.440;2023-04-24T18:36:38;15.17;;;6.20;;
32106;SDS011;18622;51.998;10.440;2023-04-24T18:39:06;4.80;;;2.97;;
32106;SDS011;18622;51.998;10.440;2023-04-24T18:41:34;6.50;;;3.60;;
32106;SDS011;18622;51.998;10.440;2023-04-24T18:44:02;6.97;;;2.73;;
32106;SDS011;18622;51.998;10.440;2023-04-24T18:46:30;6.07;;;2.77;;
32106;SDS011;18622;51.998;10.440;2023-04-24T18:48:59;11.60;;;2.90;;
32106;SDS011;18622;51.998;10.440;2023-04-24T18:51:27;6.40;;;3.30;;
32106;SDS011;18622;51.998;10.440;2023-04-24T18:53:54;5.83;;;2.70;;
32106;SDS011;18622;51.998;10.440;2023-04-24T18:56:22;7.57;;;2.63;;
32106;SDS011;18622;51.998;10.440;2023-04-24T18:58:50;7.67;;;2.50;;
32106;SDS011;18622;51.998;10.440;2023-04-24T19:01:20;4.80;;;2.17;;
32106;SDS011;18622;51.998;10.440;2023-04-24T19:03:48;4.30;;;2.33;;
32106;SDS011;18622;51.998;10.440;2023-04-24T19:06:15;3.63;;;2.23;;
32106;SDS011;18622;51.998;10.440;2023-04-24T19:08:43;7.47;;;2.27;;
32106;SDS011;18622;51.998;10.440;2023-04-24T19:11:12;4.22;;;2.27;;
32106;SDS011;18622;51.998;10.440;2023-04-24T19:13:40;6.20;;;2.13;;
32106;SDS011;18622;51.998;10.440;2023-04-24T19:16:07;4.30;;;2.27;;
32106;SDS011;18622;51.998;10.440;2023-04-24T19:18:35;6.50;;;2.40;;
32106;SDS011;18622;51.998;10.440;2023-04-24T19:21:03;4.70;;;2.83;;
32106;SDS011;18622;51.998;10.440;2023-04-24T19:23:31;4.60;;;2.60;;
32106;SDS011;18622;51.998;10.440;2023-04-24T19:26:01;6.85;;;2.40;;
32106;SDS011;18622;51.998;10.440;2023-04-24T19:28:29;7.00;;;2.75;;
32106;SDS011;18622;51.998;10.440;2023-04-24T19:30:57;6.10;;;2.47;;
32106;SDS011;18622;51.998;10.440;2023-04-24T19:33:25;5.27;;;2.97;;
32106;SDS011;18622;51.998;10.440;2023-04-24T19:35:53;4.37;;;3.00;;
32106;SDS011;18622;51.998;10.440;2023-04-24T19:38:21;7.70;;;2.53;;
32106;SDS011;18622;51.998;10.440;2023-04-24T19:40:49;7.80;;;3.63;;
32106;SDS011;18622;51.998;10.440;2023-04-24T19:43:17;8.00;;;3.33;;
32106;SDS011;18622;51.998;10.440;2023-04-24T19:45:45;8.73;;;4.00;;
32106;SDS011;18622;51.998;10.440;2023-04-24T19:48:12;5.60;;;3.10;;
32106;SDS011;18622;51.998;10.440;2023-04-24T19:50:40;6.67;;;2.83;;
32106;SDS011;18622;51.998;10.440;2023-04-24T19:53:09;11.63;;;3.80;;
32106;SDS011;18622;51.998;10.440;2023-04-24T19:55:37;7.60;;;3.87;;
32106;SDS011;18622;51.998;10.440;2023-04-24T19:58:04;9.23;;;4.50;;
32106;SDS011;18622;51.998;10.440;2023-04-24T20:00:32;16.47;;;4.73;;
32106;SDS011;18622;51.998;10.440;2023-04-24T20:03:00;7.43;;;3.43;;
32106;SDS011;18622;51.998;10.440;2023-04-24T20:05:28;7.77;;;3.10;;
32106;SDS011;18622;51.998;10.440;2023-04-24T20:07:56;8.67;;;2.63;;
32106;SDS011;18622;51.998;10.440;2023-04-24T20:10:24;7.27;;;2.50;;
32106;SDS011;18622;51.998;10.440;2023-04-24T20:12:52;5.03;;;2.50;;
32106;SDS011;18622;51.998;10.440;2023-04-24T20:15:20;3.95;;;2.15;;
32106;SDS011;18622;51.998;10.440;2023-04-24T20:17:48;6.87;;;2.40;;
32106;SDS011;18622;51.998;10.440;2023-04-24T20:20:16;7.47;;;2.30;;
32106;SDS011;18622;51.998;10.440;2023-04-24T20:22:43;5.07;;;1.90;;
32106;SDS011;18622;51.998;10.440;2023-04-24T20:25:11;4.93;;;2.13;;
32106;SDS011;18622;51.998;10.440;2023-04-24T20:27:39;5.83;;;2.37;;
32106;SDS011;18622;51.998;10.440;2023-04-24T20:30:08;10.90;;;2.60;;
32106;SDS011;18622;51.998;10.440;2023-04-24T20:35:05;4.60;;;2.42;;
32106;SDS011;18622;51.998;10.440;2023-04-24T20:37:33;5.33;;;2.13;;
32106;SDS011;18622;51.998;10.440;2023-04-24T20:40:01;4.80;;;2.03;;
32106;SDS011;18622;51.998;10.440;2023-04-24T20:42:33;7.07;;;2.47;;
32106;SDS011;18622;51.998;10.440;2023-04-24T20:45:01;7.90;;;2.60;;
